Time;durP1;ratioP1;P1;durP2;ratioP2;P2;SDS_P1;SDS_P2;PMS_P1;PMS_P2;Temp;Humidity;BMP_temperature;BMP_pressure;BME280_temperature;BME280_humidity;BME280_pressure;Samples;Min_cycle;Max_cycle;Signal;HPM_P1;HPM_P2
2022/09/29 00:01:13;;;;;;;7.87;5.10;;;;;;;17.94;97.38;98413.81;5109361;28;20209;-57
2022/09/29 00:03:40;;;;;;;5.28;4.78;;;;;;;17.84;98.66;98413.66;5109910;28;20209;-56
2022/09/29 00:06:13;;;;;;;8.53;4.30;;;;;;;17.75;98.39;98412.56;5109400;28;20589;-56
2022/09/29 00:08:40;;;;;;;6.70;4.50;;;;;;;17.82;98.22;98412.13;5109849;28;20556;-57
2022/09/29 00:11:08;;;;;;;8.75;4.20;;;;;;;17.85;98.01;98410.06;5109409;28;20290;-57
2022/09/29 00:13:35;;;;;;;5.10;3.73;;;;;;;17.96;96.34;98412.72;5109504;28;20202;-57
2022/09/29 00:16:03;;;;;;;6.75;4.25;;;;;;;17.95;95.36;98403.16;5108262;28;20195;-57
2022/09/29 00:18:33;;;;;;;3.70;3.50;;;;;;;17.83;94.60;98401.50;5109452;28;20737;-56
2022/09/29 00:21:01;;;;;;;6.77;3.70;;;;;;;17.74;95.21;98394.31;5109444;28;20293;-56
2022/09/29 00:23:30;;;;;;;5.40;3.97;;;;;;;17.71;95.15;98397.19;5109743;28;20201;-57
2022/09/29 00:26:01;;;;;;;5.27;4.00;;;;;;;17.75;94.62;98399.44;5111268;28;20195;-57
2022/09/29 00:28:28;;;;;;;7.90;3.90;;;;;;;17.67;95.15;98398.34;5113234;28;20202;-57
2022/09/29 00:30:55;;;;;;;4.30;4.00;;;;;;;17.65;96.13;98397.63;5113600;28;20209;-58
2022/09/29 00:33:22;;;;;;;6.37;3.90;;;;;;;17.64;96.36;98393.34;5113213;28;20202;-58
2022/09/29 00:35:59;;;;;;;4.43;4.03;;;;;;;17.63;96.12;98382.00;5113172;28;20233;-59
2022/09/29 00:38:26;;;;;;;5.00;4.70;;;;;;;17.66;95.66;98396.69;5113291;28;20243;-59
2022/09/29 00:40:53;;;;;;;7.67;6.23;;;;;;;17.60;95.74;98382.22;5113131;28;20202;-58
2022/09/29 00:43:23;;;;;;;7.67;6.07;;;;;;;17.57;97.03;98384.22;5112738;28;20298;-59
2022/09/29 00:45:52;;;;;;;6.17;5.57;;;;;;;17.54;97.24;98390.53;5113186;28;20730;-59
2022/09/29 00:48:28;;;;;;;8.43;7.60;;;;;;;17.49;98.12;98389.22;5113132;28;20747;-60
2022/09/29 00:50:57;;;;;;;7.60;6.90;;;;;;;17.53;97.58;98390.66;5112865;28;20204;-60
2022/09/29 00:53:26;;;;;;;11.57;7.80;;;;;;;17.39;98.68;98386.41;5112675;28;20206;-60
2022/09/29 00:55:56;;;;;;;8.13;6.47;;;;;;;17.41;98.94;98390.59;5111649;28;20197;-58
2022/09/29 00:58:31;;;;;;;8.83;6.17;;;;;;;17.45;99.35;98387.78;5111213;28;20198;-56
2022/09/29 01:00:58;;;;;;;6.03;5.53;;;;;;;17.32;100.00;98372.94;5109026;28;20198;-56
2022/09/29 01:03:29;;;;;;;7.43;4.97;;;;;;;17.37;99.89;98393.59;5112280;28;20659;-60
2022/09/29 01:05:59;;;;;;;4.40;4.00;;;;;;;17.39;99.45;98381.19;5112627;28;20220;-56
2022/09/29 01:08:30;;;;;;;5.40;4.33;;;;;;;17.41;98.29;98380.13;5112497;28;20190;-56
2022/09/29 01:11:00;;;;;;;5.73;4.23;;;;;;;17.36;98.00;98390.13;5112329;28;20575;-57
2022/09/29 01:13:27;;;;;;;4.23;3.90;;;;;;;17.32;98.30;98387.84;5112252;28;20191;-57
2022/09/29 01:15:55;;;;;;;4.40;4.07;;;;;;;17.27;98.44;98395.19;5112240;28;20205;-57
2022/09/29 01:18:22;;;;;;;4.03;3.73;;;;;;;17.22;98.02;98392.94;5112396;28;20216;-57
2022/09/29 01:20:57;;;;;;;6.07;3.70;;;;;;;17.16;98.75;98398.59;5112405;28;20225;-57
2022/09/29 01:23:49;;;;;;;3.40;3.20;;;;;;;17.01;99.79;98408.44;5111877;28;20202;-57
2022/09/29 01:26:53;;;;;;;3.63;3.43;;;;;;;17.02;98.84;98407.50;5112115;28;20199;-60
2022/09/29 01:29:57;;;;;;;4.13;3.73;;;;;;;16.94;99.22;98414.22;5112155;28;20194;-60
2022/09/29 01:32:33;;;;;;;3.50;3.30;;;;;;;16.92;99.60;98424.00;5104863;28;20198;-56
2022/09/29 01:35:09;;;;;;;5.47;3.70;;;;;;;16.83;100.00;98411.53;5111852;28;20553;-60
2022/09/29 01:37:51;;;;;;;4.10;3.80;;;;;;;16.77;100.00;98417.25;5111783;28;20669;-59
2022/09/29 01:40:24;;;;;;;4.00;3.80;;;;;;;16.72;100.00;98429.81;5112131;28;20222;-57
2022/09/29 01:42:57;;;;;;;4.10;3.80;;;;;;;16.73;100.00;98423.63;5111933;28;20205;-60
2022/09/29 01:45:29;;;;;;;4.40;4.10;;;;;;;16.69;100.00;98423.03;5112040;28;20290;-59
2022/09/29 01:48:04;;;;;;;4.10;3.80;;;;;;;16.67;100.00;98443.25;5111875;28;20195;-59
2022/09/29 01:50:35;;;;;;;4.03;3.73;;;;;;;16.66;100.00;98436.34;5111591;28;20220;-58
2022/09/29 01:53:09;;;;;;;4.03;3.67;;;;;;;16.73;100.00;98449.84;5111819;28;20190;-59
2022/09/29 01:55:42;;;;;;;4.30;3.87;;;;;;;16.67;100.00;98451.13;5111914;28;20592;-59
2022/09/29 01:58:13;;;;;;;4.83;3.97;;;;;;;16.66;100.00;98463.38;5111598;28;20194;-57
2022/09/29 02:00:49;;;;;;;8.50;5.00;;;;;;;16.63;100.00;98463.59;5111451;28;20214;-57
2022/09/29 02:03:23;;;;;;;5.23;4.83;;;;;;;16.64;100.00;98460.03;5111331;28;20255;-59
2022/09/29 02:05:53;;;;;;;7.40;3.80;;;;;;;16.51;100.00;98453.94;5111491;28;20636;-58
2022/09/29 02:08:26;;;;;;;4.43;3.87;;;;;;;16.53;100.00;98451.22;5111573;28;20609;-57
2022/09/29 02:10:59;;;;;;;5.37;4.60;;;;;;;16.43;100.00;98453.63;5111402;28;20201;-57
2022/09/29 02:13:29;;;;;;;5.33;4.23;;;;;;;16.37;100.00;98456.66;5111110;28;20289;-60
2022/09/29 02:15:58;;;;;;;4.60;4.20;;;;;;;16.27;100.00;98460.88;5111162;28;20202;-60
2022/09/29 02:18:32;;;;;;;4.77;4.30;;;;;;;16.24;100.00;98461.94;5111121;28;20196;-57
2022/09/29 02:20:58;;;;;;;5.20;4.30;;;;;;;16.27;100.00;98443.38;5110932;28;20214;-58
2022/09/29 02:23:25;;;;;;;4.67;4.17;;;;;;;16.31;100.00;98444.00;5090772;28;20614;-59
2022/09/29 02:25:54;;;;;;;4.63;4.33;;;;;;;16.23;100.00;98448.94;5090628;28;20203;-59
2022/09/29 02:28:21;;;;;;;4.43;4.03;;;;;;;16.14;100.00;98447.78;5090577;28;20211;-57
2022/09/29 02:30:50;;;;;;;4.87;4.53;;;;;;;16.11;100.00;98450.63;5090556;28;20195;-57
2022/09/29 02:33:19;;;;;;;7.17;4.60;;;;;;;16.06;100.00;98441.38;5090827;28;20670;-58
2022/09/29 02:35:58;;;;;;;4.67;4.20;;;;;;;16.00;100.00;98453.13;5090276;28;20603;-56
2022/09/29 02:38:36;;;;;;;5.83;4.10;;;;;;;15.95;100.00;98455.19;5090420;28;20207;-57
2022/09/29 02:41:12;;;;;;;4.33;4.00;;;;;;;15.87;100.00;98453.13;5090344;28;20229;-59
2022/09/29 02:43:56;;;;;;;4.47;3.80;;;;;;;15.91;100.00;98459.78;5090450;28;20195;-57
2022/09/29 02:46:42;;;;;;;7.70;4.37;;;;;;;15.85;100.00;98460.22;5090066;28;20195;-57
2022/09/29 02:49:34;;;;;;;7.27;4.10;;;;;;;15.82;100.00;98457.81;5089886;28;20199;-60
2022/09/29 02:52:15;;;;;;;4.00;3.70;;;;;;;15.67;100.00;98440.53;5090292;28;20668;-58
2022/09/29 02:55:01;;;;;;;4.77;4.33;;;;;;;15.77;100.00;98462.53;5090054;28;20195;-55
2022/09/29 02:57:36;;;;;;;5.20;4.30;;;;;;;15.78;100.00;98453.72;5090584;28;20203;-60
2022/09/29 03:00:08;;;;;;;5.13;4.47;;;;;;;15.69;100.00;98464.78;5090393;28;20218;-56
2022/09/29 03:02:36;;;;;;;7.43;4.63;;;;;;;15.76;100.00;98460.00;5090108;28;20747;-60
2022/09/29 03:05:03;;;;;;;4.87;4.47;;;;;;;15.69;100.00;98453.50;5090252;28;20572;-59
2022/09/29 03:07:32;;;;;;;8.40;5.00;;;;;;;15.77;100.00;98465.13;5089747;28;20209;-59
2022/09/29 03:10:01;;;;;;;5.83;4.13;;;;;;;15.65;100.00;98470.34;5090224;28;20659;-58
2022/09/29 03:12:28;;;;;;;12.40;4.70;;;;;;;15.67;100.00;98460.63;5089809;28;20191;-58
2022/09/29 03:14:55;;;;;;;6.40;4.80;;;;;;;15.73;100.00;98460.19;5090033;28;20215;-59
2022/09/29 03:17:23;;;;;;;4.93;4.47;;;;;;;15.83;100.00;98456.88;5107410;28;20206;-60
2022/09/29 03:19:50;;;;;;;8.97;5.00;;;;;;;15.76;100.00;98460.00;5109872;28;20305;-59
2022/09/29 03:22:17;;;;;;;9.53;4.80;;;;;;;15.75;100.00;98447.84;5108378;28;20198;-58
2022/09/29 03:24:49;;;;;;;5.87;5.37;;;;;;;15.76;100.00;98455.59;5109031;28;20198;-57
2022/09/29 03:27:16;;;;;;;6.30;4.57;;;;;;;15.76;100.00;98450.38;5108973;28;20667;-57
2022/09/29 03:29:42;;;;;;;8.43;4.30;;;;;;;15.84;100.00;98452.47;5109291;28;20203;-57
2022/09/29 03:32:09;;;;;;;6.67;4.30;;;;;;;15.85;100.00;98447.13;5108427;28;20198;-56
2022/09/29 03:34:36;;;;;;;8.50;5.00;;;;;;;15.81;100.00;98447.44;5109480;28;20613;-59
2022/09/29 03:37:04;;;;;;;9.30;5.10;;;;;;;15.73;100.00;98444.50;5109376;28;20195;-57
2022/09/29 03:39:31;;;;;;;12.20;5.00;;;;;;;15.66;100.00;98453.72;5109686;28;20219;-57
2022/09/29 03:41:59;;;;;;;7.37;4.93;;;;;;;15.69;100.00;98451.72;5108739;28;20194;-59
2022/09/29 03:44:26;;;;;;;7.80;4.67;;;;;;;15.61;100.00;98447.00;5109797;28;20670;-59
2022/09/29 03:46:53;;;;;;;5.70;5.10;;;;;;;15.60;100.00;98449.72;5109674;28;20230;-58
2022/09/29 03:49:20;;;;;;;5.57;4.50;;;;;;;15.59;100.00;98463.72;5109579;28;20199;-58
2022/09/29 03:51:47;;;;;;;6.73;4.30;;;;;;;15.60;100.00;98461.00;5108696;28;20573;-58
2022/09/29 03:54:14;;;;;;;6.40;4.40;;;;;;;15.60;100.00;98455.78;5089313;28;20225;-57
2022/09/29 03:56:41;;;;;;;9.23;4.60;;;;;;;15.66;100.00;98467.63;5093350;28;20190;-57
2022/09/29 03:59:10;;;;;;;4.77;4.37;;;;;;;15.71;100.00;98467.31;5109368;28;20194;-57
2022/09/29 04:01:38;;;;;;;4.70;3.97;;;;;;;15.69;100.00;98470.03;5111477;28;20301;-56
2022/09/29 04:04:05;;;;;;;6.17;4.47;;;;;;;15.74;100.00;98465.34;5113498;28;20209;-57
2022/09/29 04:06:32;;;;;;;6.67;4.73;;;;;;;15.76;100.00;98471.31;5112895;27;20205;-56
2022/09/29 04:08:59;;;;;;;6.07;4.70;;;;;;;15.64;100.00;98455.59;5113946;28;20201;-57
2022/09/29 04:11:26;;;;;;;6.03;4.90;;;;;;;15.66;100.00;98472.03;5113465;28;20190;-55
2022/09/29 04:13:53;;;;;;;7.67;5.00;;;;;;;15.61;100.00;98477.53;5113574;28;20203;-56
2022/09/29 04:16:22;;;;;;;5.20;4.80;;;;;;;15.64;100.00;98487.81;5113260;28;20201;-56
2022/09/29 04:18:48;;;;;;;8.57;4.70;;;;;;;15.61;100.00;98488.84;5113570;28;20214;-55
2022/09/29 04:21:16;;;;;;;7.50;5.10;;;;;;;15.67;100.00;98492.84;5113369;28;20230;-55
2022/09/29 04:23:43;;;;;;;8.73;5.13;;;;;;;15.55;100.00;98468.34;5113396;28;20195;-55
2022/09/29 04:26:09;;;;;;;5.63;5.03;;;;;;;15.67;100.00;98495.47;5113542;28;20200;-56
2022/09/29 04:28:37;;;;;;;8.77;5.73;;;;;;;15.67;100.00;98502.47;5098899;28;20613;-55
2022/09/29 04:31:05;;;;;;;6.23;5.50;;;;;;;15.68;100.00;98499.75;5092363;28;20679;-59
2022/09/29 04:33:33;;;;;;;6.20;5.33;;;;;;;15.72;100.00;98503.84;5092139;28;20215;-56
2022/09/29 04:36:01;;;;;;;9.00;5.77;;;;;;;15.73;100.00;98512.53;5096901;28;20226;-57
2022/09/29 04:38:28;;;;;;;13.87;5.10;;;;;;;15.80;100.00;98514.63;5112398;28;20266;-55
2022/09/29 04:40:55;;;;;;;5.93;5.30;;;;;;;15.83;100.00;98521.44;5112576;28;20505;-55
2022/09/29 04:43:22;;;;;;;8.33;6.10;;;;;;;15.77;100.00;98533.16;5112158;28;20344;-56
2022/09/29 04:45:48;;;;;;;5.80;5.20;;;;;;;15.84;100.00;98547.50;5112390;27;20219;-55
2022/09/29 04:48:15;;;;;;;9.97;6.00;;;;;;;15.79;100.00;98547.00;5111652;28;20222;-59
2022/09/29 04:50:44;;;;;;;9.30;5.70;;;;;;;15.87;100.00;98557.78;5112512;27;20207;-59
2022/09/29 04:53:11;;;;;;;9.97;6.00;;;;;;;15.87;100.00;98560.41;5111842;28;20234;-55
2022/09/29 04:55:39;;;;;;;7.17;6.47;;;;;;;15.91;100.00;98548.78;5112052;28;20244;-55
2022/09/29 04:58:06;;;;;;;10.53;5.87;;;;;;;15.89;100.00;98548.06;5112527;28;20210;-55
2022/09/29 05:00:34;;;;;;;6.37;5.73;;;;;;;15.89;100.00;98534.13;5112524;28;20218;-56
2022/09/29 05:03:00;;;;;;;8.37;5.53;;;;;;;15.88;100.00;98528.06;5111643;28;20195;-56
2022/09/29 05:05:28;;;;;;;5.90;5.37;;;;;;;15.89;100.00;98519.28;5111784;28;20571;-55
2022/09/29 05:07:58;;;;;;;7.87;6.03;;;;;;;15.90;100.00;98515.72;5111869;28;20190;-57
2022/09/29 05:10:25;;;;;;;10.97;5.67;;;;;;;16.20;100.00;98543.41;5108279;28;20190;-59
2022/09/29 05:12:52;;;;;;;11.40;5.50;;;;;;;16.48;100.00;98545.81;5110646;28;20190;-59
2022/09/29 05:15:19;;;;;;;6.67;5.00;;;;;;;17.27;100.00;98557.78;5111026;28;20205;-56
2022/09/29 05:17:46;;;;;;;4.70;3.93;;;;;;;18.64;94.64;98564.25;5105657;28;20194;-55
2022/09/29 05:20:13;;;;;;;9.23;4.70;;;;;;;20.46;82.68;98571.50;5110867;28;20301;-56
2022/09/29 05:22:40;;;;;;;8.18;4.85;;;;;;;22.03;71.55;98570.00;5110820;28;20202;-56
2022/09/29 05:25:10;;;;;;;5.20;4.75;;;;;;;23.14;65.84;98569.34;5108048;28;20200;-56
2022/09/29 05:27:38;;;;;;;6.30;5.03;;;;;;;24.34;60.09;98567.34;5110563;27;20198;-56
2022/09/29 05:30:06;;;;;;;12.02;4.85;;;;;;;25.64;54.27;98571.53;5111382;28;20198;-56
2022/09/29 05:32:32;;;;;;;9.15;4.70;;;;;;;26.20;51.23;98570.78;5110959;28;20195;-55
2022/09/29 05:35:01;;;;;;;6.07;4.55;;;;;;;26.74;49.31;98574.59;5110797;28;20232;-56
2022/09/29 05:37:28;;;;;;;5.35;4.47;;;;;;;27.33;47.04;98575.09;5111017;28;20251;-56
2022/09/29 05:39:55;;;;;;;8.57;4.35;;;;;;;28.23;45.44;98577.25;5110816;28;20289;-56
2022/09/29 05:42:24;;;;;;;5.28;4.78;;;;;;;29.19;42.94;98574.66;5111669;28;20202;-56
2022/09/29 05:44:51;;;;;;;4.15;3.58;;;;;;;30.21;40.15;98573.63;5111773;28;20641;-57
2022/09/29 05:47:18;;;;;;;5.50;4.45;;;;;;;30.75;38.72;98573.03;5111191;28;20309;-59
2022/09/29 05:49:45;;;;;;;6.78;3.55;;;;;;;31.65;37.38;98575.63;5110779;28;20825;-59
2022/09/29 05:52:12;;;;;;;5.15;3.25;;;;;;;31.93;36.47;98577.34;5110472;28;20193;-59
2022/09/29 05:54:39;;;;;;;4.15;3.30;;;;;;;32.75;34.68;98574.31;5110828;27;20190;-60
2022/09/29 05:57:06;;;;;;;6.57;3.70;;;;;;;32.88;34.69;98562.72;5110686;28;20289;-60
2022/09/29 05:59:34;;;;;;;4.65;3.45;;;;;;;33.79;33.03;98572.38;5110328;28;20589;-56
2022/09/29 06:02:01;;;;;;;6.28;3.38;;;;;;;34.22;32.27;98568.97;5110150;28;20219;-56
2022/09/29 06:04:28;;;;;;;8.48;4.00;;;;;;;34.67;31.50;98568.84;5110053;28;20290;-60
2022/09/29 06:06:55;;;;;;;7.20;3.75;;;;;;;35.17;30.80;98573.13;5108040;28;20194;-60
2022/09/29 06:09:22;;;;;;;9.02;3.70;;;;;;;35.91;29.63;98572.00;5110523;28;20270;-60
2022/09/29 06:11:49;;;;;;;5.65;3.70;;;;;;;35.80;29.16;98566.56;5109933;28;20198;-57
2022/09/29 06:14:16;;;;;;;5.28;3.45;;;;;;;35.30;30.14;98564.91;5107183;28;20228;-57
2022/09/29 06:16:44;;;;;;;8.88;3.55;;;;;;;35.59;29.61;98559.78;5109821;27;20522;-57
2022/09/29 06:19:12;;;;;;;4.07;3.17;;;;;;;35.45;29.62;98559.09;5109562;28;20186;-56
2022/09/29 06:21:39;;;;;;;6.55;3.15;;;;;;;35.60;29.67;98547.91;5109747;28;20598;-57
2022/09/29 06:24:07;;;;;;;3.30;2.85;;;;;;;35.45;29.53;98552.88;5109445;28;20205;-57
2022/09/29 06:26:34;;;;;;;9.40;3.42;;;;;;;36.51;28.41;98550.31;5110890;27;20251;-55
2022/09/29 06:29:02;;;;;;;5.57;3.95;;;;;;;36.15;28.59;98550.47;5110142;28;20197;-56
2022/09/29 06:31:30;;;;;;;6.13;2.92;;;;;;;35.92;29.09;98560.16;5109297;28;20666;-57
2022/09/29 06:34:00;;;;;;;3.40;3.17;;;;;;;36.45;28.21;98559.38;5109059;28;20286;-57
2022/09/29 06:39:16;;;;;;;3.55;3.25;;;;;;;37.47;27.11;98567.91;5108871;28;20208;-56
2022/09/29 06:41:47;;;;;;;5.60;3.50;;;;;;;37.03;27.00;98567.47;5110250;28;20327;-56
2022/09/29 06:44:14;;;;;;;6.13;3.45;;;;;;;37.24;27.27;98568.78;5110559;28;20598;-60
2022/09/29 06:46:41;;;;;;;10.25;3.05;;;;;;;37.52;26.72;98569.88;5110699;28;20202;-60
2022/09/29 06:49:11;;;;;;;6.82;4.00;;;;;;;37.24;26.93;98552.56;5110438;28;20662;-60
2022/09/29 06:51:38;;;;;;;8.23;3.67;;;;;;;36.75;27.09;98556.56;5110599;28;20194;-61
2022/09/29 06:54:05;;;;;;;9.70;4.05;;;;;;;36.97;27.13;98570.31;5110592;28;20202;-61
2022/09/29 06:56:32;;;;;;;8.23;3.60;;;;;;;37.02;27.34;98565.81;5110672;28;20204;-60
2022/09/29 06:58:59;;;;;;;3.72;3.42;;;;;;;36.56;27.65;98561.25;5110484;28;20198;-56
2022/09/29 07:01:26;;;;;;;8.95;3.55;;;;;;;36.62;27.34;98562.19;5110200;28;20612;-56
2022/09/29 07:03:53;;;;;;;8.88;3.78;;;;;;;37.66;26.75;98565.84;5110036;28;20196;-58
2022/09/29 07:06:21;;;;;;;13.15;4.30;;;;;;;38.64;25.98;98575.44;5110233;28;20204;-58
2022/09/29 07:08:48;;;;;;;8.98;4.07;;;;;;;37.76;26.25;98585.00;5110113;28;20194;-57
2022/09/29 07:11:15;;;;;;;10.27;4.65;;;;;;;38.14;26.44;98576.25;5109967;28;20199;-55
2022/09/29 07:13:42;;;;;;;5.75;3.85;;;;;;;38.98;25.05;98597.94;5110054;28;20205;-57
2022/09/29 07:16:12;;;;;;;7.40;3.60;;;;;;;37.90;26.22;98588.25;5110486;28;20672;-57
2022/09/29 07:18:40;;;;;;;8.23;3.80;;;;;;;36.75;27.29;98588.22;5109948;28;20204;-57
2022/09/29 07:21:14;;;;;;;3.08;2.85;;;;;;;36.07;27.89;98583.22;5110022;28;20608;-56
2022/09/29 07:23:43;;;;;;;4.20;2.80;;;;;;;34.54;29.21;98581.38;5109911;28;20290;-55
2022/09/29 07:26:11;;;;;;;6.95;2.63;;;;;;;33.22;31.27;98575.06;5109906;28;20202;-56
2022/09/29 07:28:38;;;;;;;3.75;3.03;;;;;;;32.04;33.62;98572.22;5109863;28;20230;-56
2022/09/29 07:31:07;;;;;;;4.90;3.22;;;;;;;30.67;35.99;98565.16;5110105;28;20591;-56
2022/09/29 07:33:35;;;;;;;4.57;3.25;;;;;;;29.18;38.56;98565.00;5109608;28;20194;-55
2022/09/29 07:36:02;;;;;;;3.90;3.47;;;;;;;28.47;40.34;98553.03;5107734;28;20737;-55
2022/09/29 07:38:31;;;;;;;5.03;3.47;;;;;;;28.03;41.42;98552.88;5108514;28;20194;-54
2022/09/29 07:41:02;;;;;;;7.07;3.22;;;;;;;27.74;42.70;98554.44;5108480;28;20215;-54
2022/09/29 07:43:30;;;;;;;7.32;3.08;;;;;;;27.37;43.56;98549.75;5108817;28;20624;-55
2022/09/29 07:45:58;;;;;;;5.28;3.88;;;;;;;27.01;45.00;98559.22;5109586;28;20198;-54
2022/09/29 07:48:26;;;;;;;5.85;3.85;;;;;;;26.74;45.40;98558.63;5109320;28;20213;-54
2022/09/29 07:51:01;;;;;;;7.47;3.97;;;;;;;26.44;46.59;98567.31;5108378;28;20186;-55
2022/09/29 07:53:28;;;;;;;8.80;3.60;;;;;;;26.30;47.50;98576.78;5106800;28;20198;-53
2022/09/29 07:55:55;;;;;;;7.30;4.22;;;;;;;25.83;48.89;98571.25;5109948;28;20198;-54
2022/09/29 07:58:23;;;;;;;4.30;3.33;;;;;;;25.62;49.95;98574.34;5108865;28;20201;-54
2022/09/29 08:00:54;;;;;;;8.40;4.03;;;;;;;25.64;49.74;98572.34;5109362;28;20644;-54
2022/09/29 08:03:24;;;;;;;6.63;3.83;;;;;;;25.53;50.11;98577.13;5106727;28;20202;-53
2022/09/29 08:05:51;;;;;;;4.47;3.85;;;;;;;25.53;50.48;98571.78;5109682;28;20194;-54
2022/09/29 08:08:18;;;;;;;5.22;3.78;;;;;;;25.68;50.30;98573.72;5109408;28;20202;-54
2022/09/29 08:10:45;;;;;;;6.25;3.50;;;;;;;25.73;50.58;98572.41;5109557;28;20688;-54
2022/09/29 08:13:12;;;;;;;8.90;3.80;;;;;;;25.80;50.56;98568.91;5109835;28;20612;-55
2022/09/29 08:15:40;;;;;;;14.90;4.25;;;;;;;25.86;50.97;98576.22;5109442;28;20577;-54
2022/09/29 08:18:07;;;;;;;6.35;4.65;;;;;;;25.99;50.42;98568.59;5105219;28;20202;-55
2022/09/29 08:20:35;;;;;;;11.32;5.60;;;;;;;26.09;51.03;98584.41;5099463;28;20226;-55
2022/09/29 08:23:03;;;;;;;9.27;5.38;;;;;;;25.91;50.69;98587.22;5108300;28;20223;-55
2022/09/29 08:25:30;;;;;;;11.20;5.75;;;;;;;25.98;50.64;98593.53;5108536;28;20227;-55
2022/09/29 08:27:56;;;;;;;16.25;11.98;;;;;;;26.16;50.82;98595.22;5108576;28;20233;-54
2022/09/29 08:30:23;;;;;;;16.48;8.85;;;;;;;26.34;50.69;98588.75;5108514;28;20222;-55
2022/09/29 08:32:55;;;;;;;21.88;16.25;;;;;;;26.09;51.02;98576.41;5108167;28;20222;-55
2022/09/29 08:35:22;;;;;;;9.07;4.60;;;;;;;26.07;50.88;98589.06;5107912;28;20237;-55
2022/09/29 08:37:49;;;;;;;12.52;7.38;;;;;;;26.10;50.08;98595.88;5108897;28;20186;-55
2022/09/29 08:40:16;;;;;;;5.03;3.95;;;;;;;25.84;50.25;98594.19;5108366;28;20285;-54
2022/09/29 08:42:54;;;;;;;4.43;3.70;;;;;;;25.72;49.64;98586.69;5109191;28;20278;-54
2022/09/29 08:45:28;;;;;;;5.72;4.13;;;;;;;25.56;50.10;98582.09;5109140;28;20654;-54
2022/09/29 08:48:04;;;;;;;6.70;3.50;;;;;;;25.64;50.44;98584.81;5112389;28;20233;-54
2022/09/29 08:50:35;;;;;;;4.47;3.80;;;;;;;25.71;50.60;98579.69;5112640;28;20263;-54
2022/09/29 08:53:09;;;;;;;6.00;4.15;;;;;;;25.64;50.07;98584.81;5112781;28;20592;-53
2022/09/29 08:55:45;;;;;;;7.05;3.72;;;;;;;25.52;50.53;98578.94;5112046;28;20199;-55
2022/09/29 08:58:15;;;;;;;5.63;3.20;;;;;;;25.48;50.76;98579.44;5112389;28;20198;-55
2022/09/29 09:00:49;;;;;;;5.00;3.70;;;;;;;25.47;50.94;98565.31;5112665;28;20197;-55
2022/09/29 09:03:47;;;;;;;4.45;4.05;;;;;;;25.62;51.77;98582.31;5112575;28;20222;-55
2022/09/29 09:06:21;;;;;;;11.00;3.88;;;;;;;25.60;51.31;98586.13;5089702;28;20554;-55
2022/09/29 09:09:04;;;;;;;8.90;4.50;;;;;;;25.47;51.90;98573.28;5109339;28;20251;-55
2022/09/29 09:11:45;;;;;;;8.48;4.00;;;;;;;25.50;51.91;98569.50;5111994;28;20319;-54
2022/09/29 09:14:27;;;;;;;5.30;3.63;;;;;;;25.43;51.73;98577.25;5110719;28;20187;-55
2022/09/29 09:17:04;;;;;;;4.55;4.20;;;;;;;25.42;52.11;98566.78;5092006;28;20205;-55
2022/09/29 09:19:54;;;;;;;8.00;4.00;;;;;;;25.43;52.02;98565.78;5091882;28;20206;-56
2022/09/29 09:22:22;;;;;;;4.88;3.60;;;;;;;25.50;52.02;98569.50;5091549;28;20711;-56
2022/09/29 09:24:57;;;;;;;5.68;3.65;;;;;;;25.59;51.94;98565.84;5091601;28;20649;-55
2022/09/29 09:27:26;;;;;;;13.63;3.95;;;;;;;25.56;51.76;98566.16;5091557;28;20283;-56
2022/09/29 09:30:04;;;;;;;5.35;3.70;;;;;;;25.74;51.07;98564.22;5091464;28;20283;-57
2022/09/29 09:32:36;;;;;;;5.05;4.05;;;;;;;25.63;50.67;98548.59;5099808;28;20186;-55
2022/09/29 09:35:18;;;;;;;7.75;4.30;;;;;;;25.80;51.88;98547.66;5109356;28;20657;-54
2022/09/29 09:37:46;;;;;;;7.30;4.10;;;;;;;25.96;51.08;98550.31;5111974;28;20203;-55
2022/09/29 09:40:17;;;;;;;9.93;4.88;;;;;;;26.09;50.45;98547.16;5111760;28;20194;-54
2022/09/29 09:42:52;;;;;;;8.20;4.53;;;;;;;26.19;50.46;98539.84;5111757;28;20219;-54
2022/09/29 09:45:27;;;;;;;13.20;5.32;;;;;;;26.27;50.90;98539.03;5111620;28;20201;-53
2022/09/29 09:47:59;;;;;;;14.85;5.15;;;;;;;26.42;50.01;98526.72;5111667;28;20198;-55
2022/09/29 09:50:29;;;;;;;11.15;5.03;;;;;;;26.30;50.32;98528.91;5111599;28;20671;-53
2022/09/29 09:53:01;;;;;;;12.50;5.70;;;;;;;26.27;50.22;98517.75;5111501;28;20225;-54
2022/09/29 09:55:33;;;;;;;19.13;6.18;;;;;;;26.41;49.83;98538.41;5110946;28;20620;-54
2022/09/29 09:58:30;;;;;;;11.30;5.28;;;;;;;26.59;49.69;98533.69;5108442;28;20624;-55
2022/09/29 10:01:00;;;;;;;6.93;5.05;;;;;;;26.82;49.39;98533.81;5111459;28;20198;-54
2022/09/29 10:03:28;;;;;;;6.28;4.78;;;;;;;27.02;48.29;98545.75;5111414;28;20218;-55
2022/09/29 10:09:18;;;;;;;6.82;4.75;;;;;;;27.35;46.47;98551.75;5111164;28;20813;-55
2022/09/29 10:11:45;;;;;;;7.47;4.28;;;;;;;27.36;46.85;98552.59;5100616;28;20589;-55
2022/09/29 10:14:15;;;;;;;6.10;3.90;;;;;;;27.54;46.06;98557.69;5110585;28;20198;-55
2022/09/29 10:16:48;;;;;;;4.43;4.03;;;;;;;27.56;45.71;98556.50;5111095;28;20191;-54
2022/09/29 10:19:15;;;;;;;6.72;3.63;;;;;;;27.37;46.07;98549.75;5111363;28;20479;-54
2022/09/29 10:21:43;;;;;;;7.35;4.30;;;;;;;27.19;46.15;98551.03;5110991;28;20769;-55
2022/09/29 10:24:29;;;;;;;5.05;3.22;;;;;;;27.19;46.86;98549.19;5110883;27;20533;-54
2022/09/29 10:26:59;;;;;;;6.22;3.63;;;;;;;26.95;47.12;98549.28;5110389;28;20605;-54
2022/09/29 10:29:33;;;;;;;3.58;3.28;;;;;;;27.01;47.35;98554.75;5110202;28;20202;-54
2022/09/29 10:32:04;;;;;;;5.18;3.53;;;;;;;27.15;47.10;98553.19;5108542;28;20197;-55
2022/09/29 10:34:33;;;;;;;4.53;3.15;;;;;;;27.01;47.38;98552.06;5110292;28;20317;-55
2022/09/29 10:37:02;;;;;;;4.57;3.22;;;;;;;26.99;47.59;98548.75;5110881;28;20578;-56
2022/09/29 10:39:51;;;;;;;4.47;3.40;;;;;;;27.14;47.67;98543.53;5110538;28;20234;-54
2022/09/29 10:42:23;;;;;;;18.08;3.70;;;;;;;27.22;47.62;98543.50;5105140;28;20222;-54
2022/09/29 10:44:52;;;;;;;5.18;3.08;;;;;;;27.21;47.17;98539.16;5110135;28;20277;-55
2022/09/29 10:47:21;;;;;;;4.72;3.35;;;;;;;27.26;46.79;98534.16;5109796;28;20210;-54
2022/09/29 10:49:48;;;;;;;7.60;3.70;;;;;;;27.24;46.74;98536.16;5110463;28;20194;-54
2022/09/29 10:52:24;;;;;;;9.30;3.63;;;;;;;27.24;47.10;98530.84;5110395;28;20300;-54
2022/09/29 10:54:59;;;;;;;10.00;3.88;;;;;;;27.28;47.56;98518.84;5109768;28;20255;-54
2022/09/29 10:57:28;;;;;;;15.73;4.13;;;;;;;27.26;47.79;98525.34;5107540;28;20917;-55
2022/09/29 10:59:57;;;;;;;4.97;3.50;;;;;;;27.11;47.84;98504.75;5110406;28;20294;-53
2022/09/29 11:02:30;;;;;;;5.60;3.58;;;;;;;27.12;47.83;98524.22;5110113;28;20222;-55
2022/09/29 11:05:00;;;;;;;7.90;4.18;;;;;;;27.04;47.89;98522.44;5110349;28;20617;-54
2022/09/29 11:07:28;;;;;;;4.43;4.20;;;;;;;26.91;48.06;98513.31;5109994;28;20203;-54
2022/09/29 11:09:56;;;;;;;16.55;5.07;;;;;;;26.86;47.97;98521.00;5109786;28;20194;-54
2022/09/29 11:12:30;;;;;;;18.02;11.30;;;;;;;26.86;48.65;98508.50;5110255;28;20583;-54
2022/09/29 11:14:58;;;;;;;11.70;10.63;;;;;;;26.84;49.27;98499.03;5109965;28;20204;-54
2022/09/29 11:17:27;;;;;;;16.08;12.15;;;;;;;26.93;49.23;98506.00;5110438;28;20205;-55
2022/09/29 11:19:57;;;;;;;13.13;11.75;;;;;;;26.95;49.02;98485.38;5110351;28;20204;-54
2022/09/29 11:23:05;;;;;;;12.07;10.98;;;;;;;27.14;48.92;98492.94;5110069;28;20643;-55
2022/09/29 11:26:09;;;;;;;13.35;11.82;;;;;;;27.01;48.53;98492.66;5077433;28;20580;-55
2022/09/29 11:29:08;;;;;;;11.30;10.18;;;;;;;26.98;48.51;98490.31;5090748;28;20258;-55
2022/09/29 11:31:50;;;;;;;13.02;7.05;;;;;;;27.00;48.35;98488.31;5109719;28;20198;-54
2022/09/29 11:35:04;;;;;;;6.18;5.47;;;;;;;26.84;48.55;98491.88;5110059;28;20240;-55
2022/09/29 11:37:44;;;;;;;5.60;5.10;;;;;;;26.82;48.42;98493.03;5095175;28;20281;-54
2022/09/29 11:40:17;;;;;;;8.02;6.07;;;;;;;26.78;48.67;98489.88;5109557;28;20281;-54
2022/09/29 11:43:01;;;;;;;6.13;5.53;;;;;;;26.69;48.70;98491.75;5109698;28;20226;-54
2022/09/29 11:45:37;;;;;;;9.18;5.13;;;;;;;26.77;48.13;98485.56;5109891;28;20194;-54
2022/09/29 11:48:36;;;;;;;5.22;4.63;;;;;;;26.87;47.97;98488.00;5109704;28;20204;-54
2022/09/29 11:51:10;;;;;;;8.32;4.28;;;;;;;26.87;47.81;98482.69;5109861;28;20666;-55
2022/09/29 11:53:55;;;;;;;5.85;3.58;;;;;;;26.84;47.80;98494.53;5109708;28;20198;-54